createdAt,value
2023-05-03T00:01:08.913Z,6.87
2023-05-03T00:03:37.866Z,6.80
2023-05-03T00:06:16.228Z,6.78
2023-05-03T00:08:45.879Z,6.75
2023-05-03T00:11:14.111Z,6.79
2023-05-03T00:13:42.713Z,6.78
2023-05-03T00:16:10.833Z,6.76
2023-05-03T00:18:39.044Z,6.78
2023-05-03T00:21:07.614Z,6.78
2023-05-03T00:23:35.938Z,6.78
2023-05-03T00:26:05.649Z,6.76
2023-05-03T00:28:33.942Z,6.72
2023-05-03T00:31:09.660Z,6.72
2023-05-03T00:33:37.981Z,6.70
2023-05-03T00:36:10.250Z,6.68
2023-05-03T00:38:38.810Z,6.67
2023-05-03T00:41:08.821Z,6.68
2023-05-03T00:43:37.986Z,6.66
2023-05-03T00:46:15.816Z,6.62
2023-05-03T00:48:45.935Z,6.63
2023-05-03T00:51:15.741Z,6.61
2023-05-03T00:53:46.810Z,6.62
2023-05-03T00:56:21.072Z,6.60
2023-05-03T00:58:50.015Z,6.59
2023-05-03T01:01:18.640Z,6.57
2023-05-03T01:03:47.318Z,6.51
2023-05-03T01:06:25.902Z,6.50
2023-05-03T01:09:05.789Z,6.48
2023-05-03T01:11:46.793Z,6.42
2023-05-03T01:14:24.277Z,6.44
2023-05-03T01:16:58.215Z,6.41
2023-05-03T01:19:32.326Z,6.37
2023-05-03T01:22:17.221Z,6.29
2023-05-03T01:24:48.914Z,6.31
2023-05-03T01:27:19.572Z,6.26
2023-05-03T01:29:48.017Z,6.25
2023-05-03T01:32:24.725Z,6.24
2023-05-03T01:34:58.838Z,6.23
2023-05-03T01:37:27.528Z,6.20
2023-05-03T01:40:02.047Z,6.18
2023-05-03T01:42:36.539Z,6.18
2023-05-03T01:45:06.140Z,6.14
2023-05-03T01:47:34.566Z,6.08
2023-05-03T01:50:03.126Z,6.06
2023-05-03T01:52:41.081Z,6.02
2023-05-03T01:55:10.122Z,5.96
2023-05-03T01:57:39.869Z,5.93
2023-05-03T02:00:09.950Z,5.87
2023-05-03T02:02:38.301Z,5.86
2023-05-03T02:05:07.568Z,5.75
2023-05-03T02:07:43.700Z,5.72
2023-05-03T02:10:15.179Z,5.70
2023-05-03T02:12:45.946Z,5.64
2023-05-03T02:15:14.596Z,5.60
2023-05-03T02:17:45.892Z,5.59
2023-05-03T02:20:14.738Z,5.50
2023-05-03T02:22:43.465Z,5.52
2023-05-03T02:25:11.763Z,5.50
2023-05-03T02:27:40.711Z,5.45
2023-05-03T02:30:11.169Z,5.41
2023-05-03T02:32:39.445Z,5.38
2023-05-03T02:35:08.261Z,5.36
2023-05-03T02:37:36.530Z,5.34
2023-05-03T02:40:07.522Z,5.29
2023-05-03T02:42:35.815Z,5.27
2023-05-03T02:45:04.758Z,5.20
2023-05-03T02:47:34.592Z,5.20
2023-05-03T02:50:03.313Z,5.12
2023-05-03T02:52:32.271Z,5.12
2023-05-03T02:55:00.460Z,5.04
2023-05-03T02:57:28.770Z,5.03
2023-05-03T02:59:57.271Z,5.00
2023-05-03T03:02:26.407Z,4.97
2023-05-03T03:04:57.514Z,4.95
2023-05-03T03:07:25.933Z,4.87
2023-05-03T03:09:56.251Z,4.87
2023-05-03T03:12:25.534Z,4.86
2023-05-03T03:14:54.210Z,4.85
2023-05-03T03:17:26.292Z,4.87
2023-05-03T03:19:56.334Z,4.87
2023-05-03T03:22:24.519Z,4.91
2023-05-03T03:24:53.725Z,4.96
2023-05-03T03:27:24.141Z,5.06
2023-05-03T03:29:52.363Z,5.09
2023-05-03T03:32:20.537Z,5.17
2023-05-03T03:34:49.527Z,5.17
2023-05-03T03:37:19.494Z,5.22
2023-05-03T03:39:47.669Z,5.21
2023-05-03T03:42:18.452Z,5.27
2023-05-03T03:44:47.423Z,5.30
2023-05-03T03:47:16.129Z,5.36
2023-05-03T03:49:44.439Z,5.36
2023-05-03T03:52:12.687Z,5.28
2023-05-03T03:54:42.464Z,5.32
2023-05-03T03:57:10.934Z,5.27
2023-05-03T03:59:39.129Z,5.29
2023-05-03T04:02:07.384Z,5.26
2023-05-03T04:04:36.374Z,5.25
2023-05-03T04:07:04.789Z,5.31
2023-05-03T04:09:33.203Z,5.38
2023-05-03T04:12:03.477Z,5.38
2023-05-03T04:14:31.670Z,5.43
2023-05-03T04:16:59.914Z,5.45
2023-05-03T04:19:28.254Z,5.44
2023-05-03T04:21:56.489Z,5.38
2023-05-03T04:24:24.929Z,5.36
2023-05-03T04:26:53.663Z,5.34
2023-05-03T04:29:23.577Z,5.28
2023-05-03T04:31:52.265Z,5.38
2023-05-03T04:34:20.781Z,5.44
2023-05-03T04:36:49.207Z,5.54
2023-05-03T04:39:17.858Z,5.71
2023-05-03T04:41:46.497Z,5.77
2023-05-03T04:44:14.863Z,5.81
2023-05-03T04:46:48.787Z,5.94
2023-05-03T04:49:18.601Z,6.04
2023-05-03T04:51:46.922Z,6.08
2023-05-03T04:54:15.724Z,6.15
2023-05-03T04:56:43.946Z,6.20
2023-05-03T04:59:13.159Z,6.28
2023-05-03T05:01:41.558Z,6.32
2023-05-03T05:04:11.225Z,6.42
2023-05-03T05:06:39.868Z,6.49
2023-05-03T05:09:09.024Z,6.52
2023-05-03T05:11:38.016Z,6.66
2023-05-03T05:14:06.392Z,6.76
2023-05-03T05:16:36.169Z,6.84
2023-05-03T05:19:04.596Z,6.87
2023-05-03T05:21:34.364Z,7.06
2023-05-03T05:24:02.817Z,7.10
2023-05-03T05:26:31.165Z,7.21
2023-05-03T05:28:59.532Z,7.22
2023-05-03T05:31:27.798Z,7.32
2023-05-03T05:33:56.033Z,7.43
2023-05-03T05:36:24.213Z,7.58
2023-05-03T05:38:54.021Z,7.70
2023-05-03T05:41:23.984Z,7.76
2023-05-03T05:43:52.226Z,7.82
2023-05-03T05:46:21.683Z,7.87
2023-05-03T05:48:51.405Z,7.87
2023-05-03T05:51:20.408Z,7.88
2023-05-03T05:53:48.766Z,7.95
2023-05-03T05:56:18.800Z,7.95
2023-05-03T05:58:47.193Z,7.98
2023-05-03T06:01:15.687Z,8.03
2023-05-03T06:03:44.057Z,8.07
2023-05-03T06:06:12.488Z,8.09
2023-05-03T06:08:41.832Z,8.16
2023-05-03T06:11:14.212Z,8.21
2023-05-03T06:13:44.088Z,8.31
2023-05-03T06:16:12.996Z,8.42
2023-05-03T06:18:41.351Z,8.51
2023-05-03T06:21:10.328Z,8.62
2023-05-03T06:23:39.860Z,8.66
2023-05-03T06:26:08.574Z,8.77
2023-05-03T06:28:37.684Z,8.86
2023-05-03T06:31:14.892Z,8.97
2023-05-03T06:33:43.363Z,9.04
2023-05-03T06:36:13.403Z,9.15
2023-05-03T06:38:42.188Z,9.23
2023-05-03T06:41:10.569Z,9.32
2023-05-03T06:43:38.961Z,9.42
2023-05-03T06:46:08.028Z,9.50
2023-05-03T06:48:37.922Z,9.57
2023-05-03T06:51:06.697Z,9.63
2023-05-03T06:53:34.997Z,9.78
2023-05-03T06:56:03.931Z,9.80
2023-05-03T06:58:32.474Z,9.87
2023-05-03T07:01:00.900Z,9.93
2023-05-03T07:03:29.447Z,10.00
2023-05-03T07:06:00.979Z,9.92
2023-05-03T07:08:31.784Z,10.04
2023-05-03T07:11:00.221Z,10.10
2023-05-03T07:13:28.624Z,10.16
2023-05-03T07:15:57.003Z,10.20
2023-05-03T07:18:26.424Z,10.27
2023-05-03T07:20:54.792Z,10.44
2023-05-03T07:23:25.543Z,10.46
2023-05-03T07:25:55.181Z,10.52
2023-05-03T07:28:23.564Z,10.56
2023-05-03T07:30:52.755Z,10.58
2023-05-03T07:33:21.389Z,10.65
2023-05-03T07:35:52.135Z,10.72
2023-05-03T07:38:20.479Z,10.77
2023-05-03T07:40:50.489Z,10.85
2023-05-03T07:43:23.758Z,10.90
2023-05-03T07:45:52.404Z,10.95
2023-05-03T07:48:36.654Z,11.02
2023-05-03T07:51:05.947Z,11.03
2023-05-03T07:53:35.704Z,11.05
2023-05-03T07:56:05.846Z,11.11
2023-05-03T07:58:39.873Z,11.19
2023-05-03T08:01:09.180Z,11.16
2023-05-03T08:03:37.801Z,11.20
2023-05-03T08:06:07.119Z,11.39
2023-05-03T08:08:36.724Z,11.44
2023-05-03T08:11:06.599Z,11.47
2023-05-03T08:13:35.206Z,11.46
2023-05-03T08:16:03.723Z,11.52
2023-05-03T08:18:32.190Z,11.64
2023-05-03T08:21:00.772Z,11.70
2023-05-03T08:23:32.769Z,11.75
2023-05-03T08:26:04.413Z,11.83
2023-05-03T08:28:37.097Z,11.96
2023-05-03T08:31:05.884Z,12.02
2023-05-03T08:33:34.458Z,12.09
2023-05-03T08:36:03.231Z,12.04
2023-05-03T08:38:35.165Z,12.10
2023-05-03T08:41:15.673Z,12.17
2023-05-03T08:43:55.018Z,12.15
2023-05-03T08:46:25.796Z,12.26
2023-05-03T08:48:54.857Z,12.29
2023-05-03T08:51:32.336Z,12.36
2023-05-03T08:54:01.274Z,12.38
2023-05-03T08:56:32.207Z,12.42
2023-05-03T08:59:07.884Z,12.57
2023-05-03T09:01:37.863Z,12.53
2023-05-03T09:04:09.319Z,12.62
2023-05-03T09:06:38.567Z,12.72
2023-05-03T09:09:15.469Z,12.71
2023-05-03T09:11:43.702Z,12.67
2023-05-03T09:14:15.139Z,12.70
2023-05-03T09:16:46.352Z,12.72
2023-05-03T09:19:15.892Z,12.81
2023-05-03T09:24:53.798Z,13.06
2023-05-03T09:27:22.840Z,13.03
2023-05-03T09:29:54.850Z,13.05
2023-05-03T09:32:24.650Z,13.06
2023-05-03T09:34:55.743Z,13.08
2023-05-03T09:37:38.803Z,13.15
2023-05-03T09:40:11.753Z,13.25
2023-05-03T09:42:43.860Z,13.26
2023-05-03T09:45:15.525Z,13.33
2023-05-03T09:47:54.230Z,13.34
2023-05-03T09:50:23.217Z,13.40
2023-05-03T09:52:53.158Z,13.50
2023-05-03T09:55:22.368Z,13.55
2023-05-03T09:57:54.354Z,13.53
2023-05-03T10:00:25.537Z,13.64
2023-05-03T10:03:00.674Z,13.68
2023-05-03T10:05:34.125Z,13.51
2023-05-03T10:08:05.466Z,13.28
2023-05-03T10:10:36.381Z,13.31
2023-05-03T10:13:05.718Z,13.39
2023-05-03T10:15:38.870Z,13.29
2023-05-03T10:18:09.969Z,13.29
2023-05-03T10:20:43.654Z,13.40
2023-05-03T10:23:13.574Z,13.48
2023-05-03T10:26:05.511Z,13.52
2023-05-03T10:28:36.842Z,13.49
2023-05-03T10:31:07.033Z,13.59
2023-05-03T10:33:36.558Z,13.68
2023-05-03T10:36:10.926Z,13.74
2023-05-03T10:38:40.999Z,13.74
2023-05-03T10:41:09.426Z,13.62
2023-05-03T10:43:46.304Z,13.59
2023-05-03T10:46:36.684Z,13.58
2023-05-03T10:49:21.324Z,13.64
2023-05-03T10:51:49.951Z,13.73
2023-05-03T10:54:19.697Z,13.81
2023-05-03T10:57:01.994Z,13.80
2023-05-03T10:59:49.042Z,13.92
2023-05-03T11:02:28.328Z,13.82
2023-05-03T11:05:02.421Z,13.75
2023-05-03T11:07:32.212Z,13.69
2023-05-03T11:10:01.034Z,13.74
2023-05-03T11:12:29.663Z,13.85
2023-05-03T11:14:57.941Z,13.90
2023-05-03T11:17:29.414Z,13.93
2023-05-03T11:19:59.026Z,13.86
2023-05-03T11:22:27.497Z,13.86
2023-05-03T11:24:58.542Z,13.87
2023-05-03T11:27:27.075Z,13.87
2023-05-03T11:29:58.645Z,13.97
2023-05-03T11:32:30.547Z,13.86
2023-05-03T11:34:59.391Z,13.85
2023-05-03T11:37:28.293Z,13.85
2023-05-03T11:39:58.100Z,14.00
2023-05-03T11:42:26.860Z,14.06
2023-05-03T11:44:55.461Z,14.13
2023-05-03T11:47:24.100Z,14.07
2023-05-03T11:49:58.040Z,14.04
2023-05-03T11:52:28.715Z,14.04
2023-05-03T11:54:58.982Z,14.13
2023-05-03T11:57:27.632Z,14.16
2023-05-03T11:59:56.510Z,14.18
2023-05-03T12:02:25.320Z,14.18
2023-05-03T12:04:54.834Z,14.25
2023-05-03T12:07:27.191Z,14.20
2023-05-03T12:10:10.028Z,14.24
2023-05-03T12:13:09.335Z,14.25
2023-05-03T12:15:43.733Z,14.24
2023-05-03T12:18:15.126Z,14.22
2023-05-03T12:21:29.298Z,14.16
2023-05-03T12:23:34.623Z,14.18
2023-05-03T12:26:05.149Z,14.21
2023-05-03T12:28:34.206Z,14.23
2023-05-03T12:31:05.002Z,14.32
2023-05-03T12:33:38.175Z,14.36
2023-05-03T12:36:09.806Z,14.40
2023-05-03T12:38:43.530Z,14.37
2023-05-03T12:41:15.947Z,14.28
2023-05-03T12:44:09.811Z,14.26
2023-05-03T12:46:39.586Z,14.32
2023-05-03T12:49:09.035Z,14.31
2023-05-03T12:51:42.185Z,14.30
2023-05-03T12:54:12.865Z,14.48
2023-05-03T12:56:41.814Z,14.47
2023-05-03T13:06:45.176Z,14.60
2023-05-03T13:09:20.886Z,14.59
2023-05-03T13:11:52.839Z,14.60
2023-05-03T13:14:22.077Z,14.73
2023-05-03T13:16:51.738Z,14.76
2023-05-03T13:19:28.180Z,14.83
2023-05-03T13:21:56.354Z,14.83
2023-05-03T13:24:26.284Z,14.76
2023-05-03T13:26:56.744Z,14.66
2023-05-03T13:29:29.300Z,14.57
2023-05-03T13:31:57.700Z,14.54
2023-05-03T13:34:26.439Z,14.61
2023-05-03T13:36:54.718Z,14.63
2023-05-03T13:39:28.044Z,14.65
2023-05-03T13:41:57.782Z,14.71
2023-05-03T13:44:26.269Z,14.79
2023-05-03T13:46:55.834Z,14.86
2023-05-03T13:49:27.639Z,14.95
2023-05-03T13:51:56.335Z,14.93
2023-05-03T13:54:30.066Z,14.87
2023-05-03T13:56:59.603Z,14.83
2023-05-03T13:59:27.857Z,14.89
2023-05-03T14:01:56.178Z,14.93
2023-05-03T14:04:25.673Z,14.86
2023-05-03T14:06:53.967Z,14.76
2023-05-03T14:09:23.001Z,14.73
2023-05-03T14:11:53.722Z,14.70
2023-05-03T14:14:23.423Z,14.74
2023-05-03T14:16:51.650Z,14.86
2023-05-03T14:19:21.881Z,14.78
2023-05-03T14:21:51.578Z,14.64
2023-05-03T14:24:20.017Z,14.62
2023-05-03T14:26:48.597Z,14.64
2023-05-03T14:29:19.435Z,14.60
2023-05-03T14:31:47.753Z,14.49
2023-05-03T14:34:17.217Z,14.54
2023-05-03T14:36:45.420Z,14.54
2023-05-03T14:39:16.772Z,14.63
2023-05-03T14:41:48.137Z,14.67
2023-05-03T14:44:18.021Z,14.72
2023-05-03T14:46:47.218Z,14.84
2023-05-03T14:49:17.748Z,14.83
2023-05-03T14:51:46.437Z,14.88
2023-05-03T14:54:15.019Z,14.81
2023-05-03T14:56:43.406Z,14.81
2023-05-03T14:59:14.382Z,14.74
2023-05-03T15:01:44.296Z,14.75
2023-05-03T15:04:12.704Z,14.74
2023-05-03T15:06:41.258Z,14.77
2023-05-03T15:09:11.440Z,14.84
2023-05-03T15:11:39.829Z,14.88
2023-05-03T15:14:09.278Z,14.87
2023-05-03T15:16:37.596Z,14.88
2023-05-03T15:19:07.651Z,14.83
2023-05-03T15:21:46.472Z,14.85
2023-05-03T15:24:15.431Z,14.91
2023-05-03T15:26:43.853Z,15.04
2023-05-03T15:29:13.666Z,15.51
2023-05-03T15:31:42.141Z,16.61
2023-05-03T15:34:12.700Z,18.15
2023-05-03T15:36:41.091Z,19.54
2023-05-03T15:39:09.970Z,20.79
2023-05-03T15:41:39.510Z,20.68
2023-05-03T15:44:09.894Z,21.17
2023-05-03T15:46:40.181Z,20.74
2023-05-03T15:49:13.192Z,19.56
2023-05-03T15:51:43.088Z,18.63
2023-05-03T15:54:11.474Z,17.86
2023-05-03T15:56:40.224Z,17.13
2023-05-03T15:59:08.868Z,16.48
2023-05-03T16:01:37.539Z,16.02
2023-05-03T16:04:07.797Z,15.73
2023-05-03T16:06:39.822Z,15.68
2023-05-03T16:09:08.240Z,17.08
2023-05-03T16:11:37.708Z,18.32
2023-05-03T16:14:09.391Z,19.38
2023-05-03T16:16:39.182Z,20.24
2023-05-03T16:19:08.992Z,20.71
2023-05-03T16:21:38.762Z,20.88
2023-05-03T16:24:07.551Z,20.95
2023-05-03T16:26:37.006Z,21.02
2023-05-03T16:29:05.800Z,21.21
2023-05-03T16:31:33.999Z,21.67
2023-05-03T16:34:03.175Z,21.65
2023-05-03T16:36:32.950Z,21.32
2023-05-03T16:39:04.968Z,20.57
2023-05-03T16:41:36.468Z,18.99
2023-05-03T16:44:05.729Z,17.75
2023-05-03T16:46:35.147Z,16.76
2023-05-03T16:49:03.579Z,16.02
2023-05-03T16:51:31.797Z,15.53
2023-05-03T16:54:03.710Z,15.09
2023-05-03T16:56:34.138Z,14.78
2023-05-03T16:59:03.809Z,15.01
2023-05-03T17:01:31.977Z,15.90
2023-05-03T17:04:01.670Z,16.94
2023-05-03T17:06:30.219Z,17.84
2023-05-03T17:08:58.408Z,17.57
2023-05-03T17:11:26.627Z,17.02
2023-05-03T17:13:56.250Z,16.81
2023-05-03T17:16:24.475Z,16.57
2023-05-03T17:18:52.959Z,16.70
2023-05-03T17:21:21.315Z,17.00
2023-05-03T17:23:50.519Z,17.48
2023-05-03T17:26:21.378Z,17.68
2023-05-03T17:28:49.792Z,16.98
2023-05-03T17:31:20.020Z,16.43
2023-05-03T17:33:50.499Z,15.90
2023-05-03T17:36:20.161Z,15.65
2023-05-03T17:38:50.600Z,15.44
2023-05-03T17:41:20.241Z,15.47
2023-05-03T17:43:49.689Z,15.82
2023-05-03T17:46:21.211Z,16.37
2023-05-03T17:48:50.094Z,16.78
2023-05-03T17:51:18.780Z,17.10
2023-05-03T17:53:47.473Z,17.29
2023-05-03T17:56:16.126Z,17.46
2023-05-03T17:58:45.382Z,17.53
2023-05-03T18:01:13.827Z,16.95
2023-05-03T18:03:44.409Z,16.71
2023-05-03T18:06:14.394Z,16.77
2023-05-03T18:08:47.382Z,16.28
2023-05-03T18:11:16.177Z,15.71
2023-05-03T18:13:45.403Z,15.22
2023-05-03T18:16:13.762Z,14.61
2023-05-03T18:18:43.508Z,14.20
2023-05-03T18:21:11.895Z,13.84
2023-05-03T18:23:41.149Z,13.51
2023-05-03T18:26:10.881Z,13.22
2023-05-03T18:28:39.227Z,12.87
2023-05-03T18:31:07.678Z,12.54
2023-05-03T18:33:36.090Z,12.13
2023-05-03T18:36:09.051Z,11.92
2023-05-03T18:38:38.132Z,11.71
2023-05-03T18:41:14.197Z,11.56
2023-05-03T18:43:55.524Z,11.42
2023-05-03T18:46:23.822Z,11.30
2023-05-03T18:48:52.388Z,11.23
2023-05-03T18:51:22.050Z,11.16
2023-05-03T18:53:50.702Z,11.13
2023-05-03T18:56:19.027Z,11.02
2023-05-03T18:58:50.020Z,10.96
2023-05-03T19:01:18.377Z,10.91
2023-05-03T19:03:47.054Z,10.86
2023-05-03T19:06:15.376Z,10.79
2023-05-03T19:08:47.113Z,10.76
2023-05-03T19:11:16.294Z,10.73
2023-05-03T19:13:46.442Z,10.67
2023-05-03T19:16:15.733Z,10.75
2023-05-03T19:18:45.477Z,10.76
2023-05-03T19:21:17.151Z,10.78
2023-05-03T19:23:46.799Z,10.79
2023-05-03T19:26:15.118Z,10.77
2023-05-03T19:28:44.056Z,10.70
2023-05-03T19:31:12.572Z,10.74
2023-05-03T19:33:40.947Z,10.69
2023-05-03T19:36:14.858Z,10.68
2023-05-03T19:38:43.426Z,10.68
2023-05-03T19:41:14.356Z,10.65
2023-05-03T19:43:42.949Z,10.64
2023-05-03T19:46:11.146Z,10.66
2023-05-03T19:48:39.834Z,10.66
2023-05-03T19:51:14.227Z,10.66
2023-05-03T19:53:42.771Z,10.60
2023-05-03T19:56:13.117Z,10.62
2023-05-03T19:58:43.771Z,10.58
2023-05-03T20:01:12.089Z,10.55
2023-05-03T20:03:41.137Z,10.50
2023-05-03T20:06:10.268Z,10.44
2023-05-03T20:08:41.826Z,10.40
2023-05-03T20:11:16.823Z,10.41
2023-05-03T20:13:46.625Z,10.39
2023-05-03T20:16:15.180Z,10.38
2023-05-03T20:18:43.497Z,10.37
2023-05-03T20:21:12.354Z,10.35
2023-05-03T20:23:40.909Z,10.35
2023-05-03T20:26:09.051Z,10.32
2023-05-03T20:28:37.349Z,10.27
2023-05-03T20:31:06.893Z,10.25
2023-05-03T20:33:35.014Z,10.20
2023-05-03T20:36:03.601Z,10.21
2023-05-03T20:38:32.240Z,10.19
2023-05-03T20:41:01.878Z,10.16
2023-05-03T20:43:30.125Z,10.14
2023-05-03T20:45:58.980Z,10.13
2023-05-03T20:48:28.669Z,10.08
2023-05-03T20:50:58.811Z,10.03
2023-05-03T20:53:27.798Z,9.94
2023-05-03T20:56:00.935Z,9.85
2023-05-03T20:58:29.088Z,9.76
2023-05-03T21:00:58.005Z,9.69
2023-05-03T21:03:26.755Z,9.64
2023-05-03T21:05:56.835Z,9.62
2023-05-03T21:08:28.283Z,9.60
2023-05-03T21:10:56.711Z,9.58
2023-05-03T21:13:24.918Z,9.59
2023-05-03T21:15:53.309Z,9.57
2023-05-03T21:18:42.657Z,9.55
2023-05-03T21:21:12.220Z,9.50
2023-05-03T21:23:40.390Z,9.40
2023-05-03T21:26:08.602Z,9.35
2023-05-03T21:28:36.772Z,9.28
2023-05-03T21:31:05.685Z,9.21
2023-05-03T21:33:43.658Z,9.04
2023-05-03T21:36:14.923Z,9.01
2023-05-03T21:38:43.109Z,8.91
2023-05-03T21:41:11.334Z,8.84
2023-05-03T21:43:39.778Z,8.73
2023-05-03T21:46:08.640Z,8.67
2023-05-03T21:48:37.342Z,8.61
2023-05-03T21:51:05.943Z,8.52
2023-05-03T21:53:35.727Z,8.44
2023-05-03T21:56:04.015Z,8.37
2023-05-03T21:58:32.249Z,8.32
2023-05-03T22:01:00.345Z,8.26
2023-05-03T22:03:28.731Z,8.21
2023-05-03T22:05:56.928Z,8.17
2023-05-03T22:08:25.028Z,8.15
2023-05-03T22:10:56.253Z,8.13
2023-05-03T22:13:24.340Z,8.14
2023-05-03T22:15:52.533Z,8.12
2023-05-03T22:18:20.709Z,8.08
2023-05-03T22:20:48.863Z,8.08
2023-05-03T22:23:18.880Z,8.07
2023-05-03T22:25:47.151Z,8.07
2023-05-03T22:28:16.815Z,8.04
2023-05-03T22:30:45.183Z,8.05
2023-05-03T22:33:13.487Z,8.05
2023-05-03T22:35:41.759Z,8.07
2023-05-03T22:38:09.985Z,8.06
2023-05-03T22:40:41.139Z,8.02
2023-05-03T22:43:09.350Z,7.99
2023-05-03T22:45:39.523Z,7.96
2023-05-03T22:48:08.234Z,7.98
2023-05-03T22:50:42.388Z,7.98
2023-05-03T22:53:10.655Z,7.99
2023-05-03T22:55:39.443Z,8.00
2023-05-03T22:58:07.593Z,8.00
2023-05-03T23:00:35.859Z,8.01
2023-05-03T23:03:05.653Z,7.99
2023-05-03T23:05:43.368Z,8.01
2023-05-03T23:08:11.540Z,8.01
2023-05-03T23:10:40.151Z,8.01
2023-05-03T23:13:09.123Z,8.00
2023-05-03T23:15:38.067Z,7.96
2023-05-03T23:18:08.644Z,7.98
2023-05-03T23:20:42.715Z,7.95
2023-05-03T23:23:13.868Z,7.90
2023-05-03T23:25:42.019Z,7.84
2023-05-03T23:28:10.581Z,7.83
2023-05-03T23:30:43.822Z,7.78
2023-05-03T23:33:14.900Z,7.72
2023-05-03T23:35:43.742Z,7.60
2023-05-03T23:38:13.637Z,7.57
2023-05-03T23:40:41.933Z,7.50
2023-05-03T23:43:12.470Z,7.42
2023-05-03T23:45:40.827Z,7.32
2023-05-03T23:48:09.103Z,7.23
2023-05-03T23:50:41.299Z,7.21
2023-05-03T23:53:09.499Z,7.16
2023-05-03T23:55:37.783Z,7.07
2023-05-03T23:58:06.022Z,7.00
